Time;durP1;ratioP1;P1;durP2;ratioP2;P2;SDS_P1;SDS_P2;PMS_P1;PMS_P2;Temp;Humidity;BMP_temperature;BMP_pressure;BME280_temperature;BME280_humidity;BME280_pressure;Samples;Min_cycle;Max_cycle;Signal;HPM_P1;HPM_P2
2022/11/11 00:01:31;;;;;;;14.30;10.27;;;15.70;96.50;;;;;;5055673;28;20056;-77
2022/11/11 00:03:56;;;;;;;13.13;10.35;;;15.70;96.60;;;;;;5055947;28;20037;-75
2022/11/11 00:06:22;;;;;;;14.65;10.88;;;15.70;96.70;;;;;;5055889;28;20059;-76
2022/11/11 00:08:48;;;;;;;15.10;10.23;;;15.70;96.70;;;;;;5055887;28;20029;-75
2022/11/11 00:11:15;;;;;;;18.48;10.98;;;15.70;96.70;;;;;;5055818;28;20124;-75
2022/11/11 00:13:41;;;;;;;13.57;10.48;;;15.70;96.70;;;;;;5055806;28;20048;-75
2022/11/11 00:16:09;;;;;;;17.33;10.98;;;15.60;96.70;;;;;;5055697;28;20544;-76
2022/11/11 00:27:13;;;;;;;13.38;10.52;;;15.60;96.70;;;;;;5055896;28;20389;-77
2022/11/11 00:29:39;;;;;;;14.07;10.20;;;15.70;96.60;;;;;;5055427;28;20025;-76
2022/11/11 00:32:22;;;;;;;14.18;9.57;;;15.60;96.70;;;;;;5055116;28;20025;-77
2022/11/11 00:37:40;;;;;;;15.27;9.63;;;15.50;96.80;;;;;;5054598;28;20097;-76
2022/11/11 00:40:07;;;;;;;16.58;10.68;;;15.60;96.80;;;;;;5054837;28;20017;-75
2022/11/11 00:42:33;;;;;;;14.77;10.50;;;15.60;96.70;;;;;;5054557;28;20021;-76
2022/11/11 00:44:58;;;;;;;13.55;9.65;;;15.60;96.80;;;;;;5053497;28;20054;-77
2022/11/11 00:52:59;;;;;;;11.75;9.48;;;15.60;96.70;;;;;;5050143;28;20036;-74
2022/11/11 00:55:25;;;;;;;14.27;10.07;;;15.60;96.60;;;;;;5051953;28;20021;-77
2022/11/11 00:57:50;;;;;;;15.13;9.80;;;15.50;96.70;;;;;;5052466;28;20599;-77
2022/11/11 01:00:16;;;;;;;15.38;9.93;;;15.50;96.80;;;;;;5052425;28;20530;-77
2022/11/11 01:02:41;;;;;;;15.15;9.73;;;15.50;96.80;;;;;;5053383;28;20098;-77
2022/11/11 01:05:07;;;;;;;14.95;9.93;;;15.40;96.80;;;;;;5050983;28;20547;-77
2022/11/11 01:07:33;;;;;;;15.32;10.32;;;15.50;96.80;;;;;;5052898;28;20488;-77
2022/11/11 01:09:58;;;;;;;13.80;10.65;;;15.50;96.90;;;;;;5054442;28;20013;-75
2022/11/11 01:12:24;;;;;;;17.52;11.27;;;15.50;96.80;;;;;;5053375;28;20378;-78
2022/11/11 01:14:49;;;;;;;13.43;11.45;;;15.50;96.90;;;;;;5054639;28;20446;-77
2022/11/11 01:17:15;;;;;;;16.25;10.93;;;15.40;96.90;;;;;;5054110;28;20495;-78
2022/11/11 01:19:40;;;;;;;15.50;10.18;;;15.40;96.90;;;;;;5052987;28;20399;-76
2022/11/11 01:22:06;;;;;;;13.55;10.80;;;15.40;96.80;;;;;;5053315;28;20032;-78
2022/11/11 01:24:31;;;;;;;15.48;9.93;;;15.40;97.00;;;;;;5054024;28;20021;-77
2022/11/11 01:26:57;;;;;;;14.55;9.95;;;15.30;97.00;;;;;;5054306;28;20036;-78
2022/11/11 01:29:22;;;;;;;17.63;11.30;;;15.30;97.10;;;;;;5054026;28;20060;-77
2022/11/11 01:31:48;;;;;;;12.82;10.23;;;15.30;97.20;;;;;;5054255;28;20021;-78
2022/11/11 01:34:13;;;;;;;16.25;10.48;;;15.30;97.10;;;;;;5053073;28;20495;-78
2022/11/11 01:36:39;;;;;;;15.57;10.63;;;15.30;97.10;;;;;;5054243;28;20036;-78
2022/11/11 01:39:04;;;;;;;11.55;9.70;;;15.40;97.10;;;;;;5053819;28;20025;-78
2022/11/11 01:41:33;;;;;;;13.85;10.13;;;15.40;97.10;;;;;;5053702;28;20048;-78
2022/11/11 01:43:58;;;;;;;11.88;9.40;;;15.40;97.10;;;;;;5053960;28;20028;-75
2022/11/11 01:46:32;;;;;;;15.55;9.77;;;15.50;96.90;;;;;;5053237;28;20036;-75
2022/11/11 01:49:19;;;;;;;16.45;9.95;;;15.40;97.10;;;;;;5052772;28;20462;-78
2022/11/11 01:52:19;;;;;;;12.85;9.90;;;15.30;97.10;;;;;;5053647;28;20032;-78
2022/11/11 01:55:13;;;;;;;16.33;9.80;;;15.30;97.10;;;;;;5052999;28;20108;-76
2022/11/11 01:57:52;;;;;;;14.48;9.65;;;15.30;97.20;;;;;;5052776;28;20406;-76
2022/11/11 02:00:19;;;;;;;14.00;9.40;;;15.30;97.30;;;;;;5054045;28;20039;-74
2022/11/11 02:02:53;;;;;;;12.68;9.25;;;15.20;97.30;;;;;;5053021;28;20040;-76
2022/11/11 02:08:10;;;;;;;13.25;8.95;;;15.20;97.30;;;;;;5053890;28;20083;-75
2022/11/11 02:10:38;;;;;;;16.70;9.60;;;15.20;97.20;;;;;;5053601;28;20473;-76
2022/11/11 02:15:55;;;;;;;10.48;8.50;;;15.20;97.30;;;;;;5053762;28;20032;-75
2022/11/11 02:18:21;;;;;;;15.75;9.63;;;15.30;97.10;;;;;;5053498;28;20029;-76
2022/11/11 02:20:47;;;;;;;14.10;9.40;;;15.30;97.10;;;;;;5052175;28;20402;-75
2022/11/11 02:23:44;;;;;;;15.45;9.82;;;15.30;97.10;;;;;;5053734;28;20367;-74
2022/11/11 02:26:11;;;;;;;13.90;9.40;;;15.20;97.20;;;;;;5053278;28;20029;-76
2022/11/11 02:28:38;;;;;;;15.07;9.65;;;15.10;97.30;;;;;;5053162;28;20123;-75
2022/11/11 02:31:04;;;;;;;13.52;9.55;;;15.20;97.20;;;;;;5053242;28;20064;-74
2022/11/11 02:33:29;;;;;;;12.43;9.38;;;15.20;97.20;;;;;;5053623;28;20417;-76
2022/11/11 02:36:01;;;;;;;13.30;10.13;;;15.20;97.20;;;;;;5051890;28;20037;-77
2022/11/11 02:38:28;;;;;;;14.80;10.07;;;15.20;97.10;;;;;;5051199;28;20055;-74
2022/11/11 02:43:38;;;;;;;12.60;9.23;;;15.20;97.00;;;;;;5053164;28;20032;-75
2022/11/11 02:46:05;;;;;;;11.32;9.35;;;15.10;97.00;;;;;;5053138;28;20025;-75
2022/11/11 02:48:31;;;;;;;11.38;9.30;;;15.20;97.00;;;;;;5053108;28;20039;-74
2022/11/11 02:50:57;;;;;;;12.10;8.82;;;15.10;96.90;;;;;;5053486;28;20112;-75
2022/11/11 02:53:23;;;;;;;11.00;9.43;;;15.10;96.90;;;;;;5052119;28;20488;-75
2022/11/11 02:55:48;;;;;;;11.93;8.85;;;15.10;96.90;;;;;;5051403;28;20396;-75
2022/11/11 02:58:15;;;;;;;11.13;8.35;;;15.00;97.10;;;;;;5053231;28;20102;-75
2022/11/11 03:00:41;;;;;;;9.50;8.32;;;15.10;97.00;;;;;;5053544;28;20020;-74
2022/11/11 03:03:07;;;;;;;11.80;8.07;;;15.00;97.20;;;;;;5053143;28;20056;-74
2022/11/11 03:05:33;;;;;;;12.75;7.57;;;14.90;97.40;;;;;;5053421;28;20079;-75
2022/11/11 03:07:59;;;;;;;11.25;8.35;;;14.90;97.40;;;;;;5052825;28;20029;-75
2022/11/11 03:10:24;;;;;;;13.35;8.27;;;14.90;97.30;;;;;;5052468;28;20033;-74
2022/11/11 03:12:50;;;;;;;12.73;7.95;;;14.90;97.50;;;;;;5053034;28;20017;-76
2022/11/11 03:15:15;;;;;;;13.20;8.88;;;14.90;97.40;;;;;;5052824;28;20427;-74
2022/11/11 03:17:41;;;;;;;14.60;8.98;;;15.00;97.30;;;;;;5052700;28;20021;-75
2022/11/11 03:23:07;;;;;;;13.88;8.45;;;15.00;97.20;;;;;;5053230;28;20059;-75
2022/11/11 03:25:37;;;;;;;12.48;8.18;;;14.90;97.10;;;;;;5052064;28;20039;-74
2022/11/11 03:28:17;;;;;;;14.48;8.82;;;14.90;97.30;;;;;;5054458;28;20025;-77
2022/11/11 03:30:45;;;;;;;11.52;8.63;;;14.90;97.30;;;;;;5056719;28;20044;-76
2022/11/11 03:33:12;;;;;;;12.07;8.45;;;15.00;97.20;;;;;;5057046;28;20102;-78
2022/11/11 03:35:38;;;;;;;11.82;9.18;;;14.90;97.20;;;;;;5056520;28;20082;-77
2022/11/11 03:38:17;;;;;;;10.50;8.63;;;14.90;97.20;;;;;;5056455;28;20037;-76
2022/11/11 03:40:47;;;;;;;13.02;9.20;;;14.80;97.30;;;;;;5056573;28;20056;-78
2022/11/11 03:43:15;;;;;;;11.90;8.95;;;14.80;97.30;;;;;;5056546;28;20072;-75
2022/11/11 03:45:41;;;;;;;11.40;7.97;;;14.80;97.30;;;;;;5056422;28;20024;-78
2022/11/11 03:48:07;;;;;;;11.07;8.38;;;14.80;97.20;;;;;;5055682;28;20056;-77
2022/11/11 03:50:33;;;;;;;10.70;8.75;;;14.80;97.30;;;;;;5056179;28;20072;-76
2022/11/11 03:52:59;;;;;;;12.65;8.70;;;14.70;97.40;;;;;;5056285;28;20025;-77
2022/11/11 03:55:25;;;;;;;13.10;8.88;;;14.70;97.40;;;;;;5049277;28;20112;-74
2022/11/11 03:57:50;;;;;;;11.38;8.63;;;14.80;97.30;;;;;;5047939;28;20355;-74
2022/11/11 04:00:20;;;;;;;12.45;9.07;;;14.80;97.20;;;;;;5035170;28;20065;-75
2022/11/11 04:11:13;;;;;;;11.45;8.30;;;14.80;97.10;;;;;;5035965;28;20052;-76
2022/11/11 04:16:26;;;;;;;11.10;7.93;;;14.80;97.10;;;;;;5036326;28;20558;-74
2022/11/11 04:21:44;;;;;;;9.82;8.25;;;14.70;97.10;;;;;;5035466;28;20028;-74
2022/11/11 04:27:05;;;;;;;11.55;8.15;;;14.70;97.20;;;;;;5035692;28;20072;-75
2022/11/11 04:29:31;;;;;;;16.08;7.85;;;14.60;97.30;;;;;;5035795;28;20033;-75
2022/11/11 04:34:48;;;;;;;16.02;9.00;;;14.40;97.70;;;;;;5035922;28;20117;-75
2022/11/11 04:37:14;;;;;;;11.98;8.70;;;14.50;97.40;;;;;;5034064;28;20128;-75
2022/11/11 04:42:25;;;;;;;13.35;8.57;;;14.50;97.30;;;;;;5035699;28;20071;-74
2022/11/11 04:47:35;;;;;;;12.25;9.10;;;14.40;97.50;;;;;;5035586;28;20064;-76
2022/11/11 04:50:00;;;;;;;12.52;9.23;;;14.40;97.50;;;;;;5035325;28;20112;-74
2022/11/11 04:52:26;;;;;;;9.93;8.88;;;14.50;97.30;;;;;;5034972;28;20100;-74
2022/11/11 04:57:45;;;;;;;17.60;9.52;;;14.50;97.40;;;;;;5035285;28;20044;-77
2022/11/11 05:00:14;;;;;;;13.68;8.95;;;14.50;97.40;;;;;;5035238;28;20466;-76
2022/11/11 05:05:25;;;;;;;13.23;9.10;;;14.50;97.30;;;;;;5034550;28;20044;-76
2022/11/11 05:10:36;;;;;;;10.25;8.20;;;14.50;97.40;;;;;;5035093;28;20091;-77
2022/11/11 05:21:21;;;;;;;14.80;8.95;;;14.40;97.40;;;;;;5034494;28;20044;-77
2022/11/11 05:26:35;;;;;;;14.27;9.80;;;14.40;97.50;;;;;;5035156;28;20063;-78
2022/11/11 05:29:01;;;;;;;15.38;8.52;;;14.30;97.70;;;;;;5034402;28;20450;-78
2022/11/11 05:31:28;;;;;;;10.23;7.93;;;14.30;97.60;;;;;;5034552;28;20032;-78
2022/11/11 05:33:53;;;;;;;12.27;8.38;;;14.30;97.60;;;;;;5034371;28;20524;-78
2022/11/11 05:36:19;;;;;;;11.02;8.40;;;14.30;97.80;;;;;;5034342;28;20029;-78
2022/11/11 05:38:45;;;;;;;13.05;8.95;;;14.20;97.90;;;;;;5034233;28;20500;-78
2022/11/11 05:41:10;;;;;;;13.90;9.70;;;14.20;98.00;;;;;;5034675;28;20069;-77
2022/11/11 05:43:36;;;;;;;14.15;9.15;;;14.20;98.00;;;;;;5034343;28;20459;-78
2022/11/11 05:46:01;;;;;;;15.43;9.80;;;14.20;98.10;;;;;;5032941;28;20033;-78
2022/11/11 05:48:27;;;;;;;13.85;10.20;;;14.20;98.00;;;;;;5034196;28;20053;-78
2022/11/11 05:50:52;;;;;;;13.95;9.95;;;14.20;98.30;;;;;;5033091;28;20116;-76
2022/11/11 05:53:22;;;;;;;14.80;9.75;;;14.30;97.90;;;;;;5034082;28;20037;-77
2022/11/11 05:55:49;;;;;;;13.02;10.05;;;14.30;97.80;;;;;;5034131;28;20025;-75
2022/11/11 05:58:16;;;;;;;12.60;9.18;;;14.30;97.80;;;;;;5033908;28;20029;-75
2022/11/11 06:00:42;;;;;;;13.10;9.35;;;14.30;97.80;;;;;;5034829;28;20561;-75
2022/11/11 06:03:08;;;;;;;13.68;9.45;;;14.30;97.70;;;;;;5047606;28;20112;-73
2022/11/11 06:05:35;;;;;;;12.95;8.70;;;14.30;97.60;;;;;;5053017;28;20029;-73
2022/11/11 06:08:01;;;;;;;10.75;9.15;;;14.40;97.50;;;;;;5051235;28;20017;-74
2022/11/11 06:10:29;;;;;;;12.88;9.57;;;14.40;97.30;;;;;;5052736;28;20441;-74
2022/11/11 06:13:04;;;;;;;14.60;8.80;;;14.40;97.40;;;;;;5053408;28;20023;-74
2022/11/11 06:15:34;;;;;;;10.98;8.20;;;14.40;97.40;;;;;;5053720;28;20032;-74
2022/11/11 06:18:01;;;;;;;11.38;8.57;;;14.40;97.40;;;;;;5053693;28;20105;-74
2022/11/11 06:20:27;;;;;;;11.25;8.35;;;14.30;97.30;;;;;;5053670;28;20029;-74
2022/11/11 06:22:55;;;;;;;11.23;8.10;;;14.40;97.20;;;;;;5054012;28;20024;-74
2022/11/11 06:28:06;;;;;;;10.07;7.70;;;14.40;97.20;;;;;;5053665;28;20075;-74
2022/11/11 06:30:31;;;;;;;12.02;8.70;;;14.30;97.50;;;;;;5053298;28;20061;-76
2022/11/11 06:32:57;;;;;;;9.35;8.05;;;14.30;97.50;;;;;;5053021;28;20373;-78
2022/11/11 06:35:22;;;;;;;9.80;8.45;;;14.30;97.50;;;;;;5053148;28;20383;-77
2022/11/11 06:37:48;;;;;;;9.57;8.20;;;14.20;97.60;;;;;;5053215;28;20055;-76
2022/11/11 06:40:14;;;;;;;9.80;8.30;;;14.20;97.60;;;;;;5054149;28;20028;-75
2022/11/11 06:42:39;;;;;;;10.77;8.02;;;14.30;97.50;;;;;;5047408;28;20030;-75
2022/11/11 06:45:05;;;;;;;9.75;7.40;;;14.40;97.40;;;;;;5052363;28;20021;-77
2022/11/11 06:47:31;;;;;;;11.63;8.70;;;14.70;97.40;;;;;;5052487;28;20033;-77
2022/11/11 06:49:56;;;;;;;12.23;9.90;;;14.90;96.80;;;;;;5053006;28;20086;-78
2022/11/11 06:52:22;;;;;;;12.05;8.32;;;15.10;96.60;;;;;;5052158;28;20482;-79
2022/11/11 06:54:47;;;;;;;11.63;8.63;;;15.10;96.60;;;;;;5051762;28;20513;-79
2022/11/11 06:57:13;;;;;;;16.50;9.25;;;15.10;96.60;;;;;;5052303;28;20103;-79
2022/11/11 06:59:38;;;;;;;12.05;9.40;;;15.10;96.50;;;;;;5053318;28;20130;-80
2022/11/11 07:02:04;;;;;;;11.48;8.60;;;15.10;96.40;;;;;;5052469;28;20077;-78
2022/11/11 07:04:29;;;;;;;13.15;9.38;;;15.10;96.40;;;;;;5052692;28;20512;-78
2022/11/11 07:06:55;;;;;;;9.68;7.68;;;15.10;96.50;;;;;;5052916;28;20025;-79
2022/11/11 07:09:22;;;;;;;16.90;13.10;;;15.20;96.80;;;;;;5052795;28;20029;-79
2022/11/11 07:11:47;;;;;;;10.85;8.20;;;15.20;96.70;;;;;;5052794;28;20095;-79
2022/11/11 07:14:13;;;;;;;14.02;8.63;;;15.20;96.80;;;;;;5053392;28;20417;-79
2022/11/11 07:16:38;;;;;;;12.35;8.00;;;15.30;96.90;;;;;;5052413;28;20044;-78
2022/11/11 07:19:04;;;;;;;12.43;9.05;;;15.30;96.70;;;;;;5053014;28;20021;-79
2022/11/11 07:21:30;;;;;;;14.80;8.35;;;15.30;96.40;;;;;;5052652;28;20470;-79
2022/11/11 07:23:55;;;;;;;12.73;8.38;;;15.30;96.40;;;;;;5052708;28;20521;-78
2022/11/11 07:26:21;;;;;;;12.07;8.43;;;15.30;96.30;;;;;;5052657;28;20075;-79
2022/11/11 07:28:49;;;;;;;8.90;7.85;;;15.20;96.20;;;;;;5051491;28;20029;-79
2022/11/11 07:31:15;;;;;;;11.88;9.15;;;15.30;96.10;;;;;;5044614;28;20032;-78
2022/11/11 07:33:40;;;;;;;11.48;8.15;;;15.10;95.80;;;;;;5046129;28;20025;-77
2022/11/11 07:36:07;;;;;;;11.77;8.05;;;15.10;96.00;;;;;;5035420;28;20029;-78
2022/11/11 07:38:32;;;;;;;13.02;8.02;;;15.20;96.30;;;;;;5049405;28;20109;-76
2022/11/11 07:40:58;;;;;;;11.68;7.78;;;15.30;95.80;;;;;;5057016;28;20119;-78
2022/11/11 07:43:24;;;;;;;8.23;7.43;;;15.30;95.90;;;;;;5044294;28;20071;-79
2022/11/11 07:45:50;;;;;;;13.55;7.32;;;15.30;95.90;;;;;;5064930;28;20516;-78
2022/11/11 07:48:15;;;;;;;10.50;8.50;;;15.30;96.20;;;;;;5050377;28;20021;-75
2022/11/11 07:50:41;;;;;;;11.48;7.68;;;15.30;96.20;;;;;;5049752;28;20339;-77
2022/11/11 07:53:06;;;;;;;5.43;3.95;;;15.30;96.00;;;;;;5053876;28;20104;-74
2022/11/11 07:55:32;;;;;;;5.28;3.42;;;15.30;97.00;;;;;;5042502;28;20053;-75
2022/11/11 07:57:57;;;;;;;7.72;4.07;;;15.40;97.70;;;;;;5031493;28;20021;-78
2022/11/11 08:00:23;;;;;;;6.03;3.28;;;15.40;97.80;;;;;;5040753;28;20036;-74
2022/11/11 08:02:49;;;;;;;14.00;3.72;;;15.50;97.70;;;;;;5044079;28;20091;-78
2022/11/11 08:05:15;;;;;;;10.10;3.85;;;15.60;97.60;;;;;;5029799;28;20033;-76
2022/11/11 08:07:41;;;;;;;10.27;3.67;;;15.70;97.30;;;;;;5050284;28;20560;-75
2022/11/11 08:10:07;;;;;;;7.30;4.50;;;15.70;97.10;;;;;;5050056;28;20033;-76
2022/11/11 08:15:17;;;;;;;8.00;3.50;;;15.60;96.90;;;;;;5049635;28;20035;-75
2022/11/11 08:17:43;;;;;;;9.10;4.70;;;15.70;96.60;;;;;;5050995;28;20028;-75
2022/11/11 08:20:10;;;;;;;8.55;3.40;;;15.70;96.30;;;;;;5058209;28;20070;-75
2022/11/11 08:22:39;;;;;;;10.38;3.53;;;15.70;96.50;;;;;;5045583;28;20043;-74
2022/11/11 08:25:07;;;;;;;4.50;2.58;;;15.70;96.50;;;;;;5045750;28;20029;-75
2022/11/11 08:27:33;;;;;;;6.05;3.67;;;15.70;96.50;;;;;;5045877;28;20033;-75
2022/11/11 08:29:59;;;;;;;12.25;4.97;;;15.70;96.30;;;;;;5040118;28;20477;-75
2022/11/11 08:32:26;;;;;;;7.88;5.22;;;15.70;95.90;;;;;;5057911;28;20068;-74
2022/11/11 08:34:52;;;;;;;10.27;7.40;;;15.90;95.90;;;;;;5052026;28;20048;-75
2022/11/11 08:37:17;;;;;;;8.60;5.78;;;15.70;95.10;;;;;;5054420;28;20033;-75
2022/11/11 08:39:43;;;;;;;8.05;5.65;;;15.70;95.00;;;;;;5055139;28;20028;-77
2022/11/11 08:42:09;;;;;;;9.10;6.10;;;15.70;95.10;;;;;;5049013;28;20401;-76
2022/11/11 08:44:34;;;;;;;8.55;5.63;;;15.70;94.70;;;;;;5046836;28;20036;-75
2022/11/11 08:47:00;;;;;;;9.70;5.32;;;15.60;94.60;;;;;;5044927;28;20025;-75
2022/11/11 08:49:25;;;;;;;9.07;4.75;;;15.70;94.90;;;;;;5051665;28;20489;-76
2022/11/11 08:51:51;;;;;;;14.00;3.88;;;15.70;95.30;;;;;;5052319;28;20375;-76
2022/11/11 08:54:17;;;;;;;8.65;5.32;;;15.60;96.10;;;;;;5051566;28;20488;-75
2022/11/11 08:56:42;;;;;;;7.18;5.68;;;15.70;95.70;;;;;;5051046;28;20041;-75
2022/11/11 08:59:09;;;;;;;9.38;5.70;;;15.70;95.10;;;;;;5057279;28;20029;-76
2022/11/11 09:01:35;;;;;;;7.22;4.30;;;15.60;94.70;;;;;;5049674;28;20067;-75
2022/11/11 09:04:00;;;;;;;9.07;4.63;;;15.60;94.80;;;;;;5071100;28;20123;-76
2022/11/11 09:06:28;;;;;;;7.18;4.75;;;15.60;94.80;;;;;;5055259;28;20183;-75
2022/11/11 09:08:53;;;;;;;5.35;4.25;;;15.60;94.80;;;;;;5053351;28;20057;-75
2022/11/11 09:11:19;;;;;;;6.00;3.78;;;15.60;94.70;;;;;;5051920;28;20076;-75
2022/11/11 09:13:48;;;;;;;8.07;4.22;;;15.50;95.10;;;;;;5043330;28;20033;-73
2022/11/11 09:16:14;;;;;;;10.32;4.50;;;15.60;95.00;;;;;;5051543;28;20028;-75
2022/11/11 09:18:39;;;;;;;9.23;3.70;;;15.50;94.80;;;;;;5054757;28;20027;-76
2022/11/11 09:21:05;;;;;;;7.97;3.70;;;15.50;95.40;;;;;;5056778;28;20431;-78
2022/11/11 09:23:31;;;;;;;6.20;2.92;;;15.50;95.70;;;;;;5053909;28;20032;-75
2022/11/11 09:26:02;;;;;;;8.73;3.13;;;15.50;96.10;;;;;;5045621;28;20021;-76
2022/11/11 09:28:30;;;;;;;9.97;3.23;;;15.60;96.40;;;;;;5053722;28;20009;-76
2022/11/11 09:31:01;;;;;;;9.38;3.80;;;15.60;96.60;;;;;;5044777;28;20035;-76
2022/11/11 09:33:27;;;;;;;12.98;3.47;;;15.60;96.40;;;;;;5044738;28;20017;-75
2022/11/11 09:35:53;;;;;;;6.72;3.03;;;15.60;96.40;;;;;;5045380;28;20099;-76
2022/11/11 09:38:19;;;;;;;7.72;3.10;;;15.70;96.10;;;;;;5046079;28;20766;-75
2022/11/11 09:40:59;;;;;;;7.38;3.22;;;15.60;95.90;;;;;;5059127;28;20077;-73
2022/11/11 09:43:44;;;;;;;6.93;2.55;;;15.70;96.40;;;;;;5048877;28;20121;-74
2022/11/11 09:46:39;;;;;;;8.88;3.45;;;15.70;96.30;;;;;;5045011;28;20090;-73
2022/11/11 09:49:15;;;;;;;12.88;3.10;;;15.70;96.60;;;;;;5050927;28;20366;-75
2022/11/11 09:51:56;;;;;;;11.93;3.38;;;15.70;96.80;;;;;;5050507;28;20116;-74
2022/11/11 09:54:54;;;;;;;23.48;4.15;;;15.70;96.70;;;;;;5049924;28;20429;-77
2022/11/11 09:57:40;;;;;;;14.07;3.97;;;15.80;96.90;;;;;;5046243;28;20107;-77
2022/11/11 10:00:19;;;;;;;15.70;3.60;;;15.80;96.90;;;;;;5052460;28;20541;-75
2022/11/11 10:02:50;;;;;;;14.10;3.97;;;15.80;97.00;;;;;;5052456;28;20083;-79
2022/11/11 10:05:24;;;;;;;9.60;3.90;;;15.80;97.20;;;;;;5046587;28;20071;-76
2022/11/11 10:07:59;;;;;;;15.23;5.55;;;15.80;97.00;;;;;;5045963;28;20048;-77
2022/11/11 10:10:46;;;;;;;16.95;5.68;;;15.90;96.90;;;;;;5044420;28;20037;-75
2022/11/11 10:13:19;;;;;;;10.77;3.60;;;15.80;96.90;;;;;;5056137;28;20100;-77
2022/11/11 10:16:32;;;;;;;12.88;3.45;;;15.80;97.20;;;;;;5050839;28;20100;-77
2022/11/11 10:19:13;;;;;;;12.63;3.63;;;15.80;97.30;;;;;;5041794;28;20115;-77
2022/11/11 10:22:11;;;;;;;9.68;3.50;;;15.80;97.30;;;;;;5049907;28;20491;-77
2022/11/11 10:24:41;;;;;;;10.85;3.42;;;15.90;97.40;;;;;;5046276;28;20474;-77
2022/11/11 10:27:18;;;;;;;8.05;2.95;;;15.80;97.10;;;;;;5043459;28;20432;-76
2022/11/11 10:29:44;;;;;;;12.98;3.40;;;15.80;97.20;;;;;;5047050;28;20029;-77
2022/11/11 10:32:19;;;;;;;11.18;2.92;;;15.90;97.20;;;;;;5043653;28;20108;-76
2022/11/11 10:34:45;;;;;;;5.28;2.30;;;15.90;97.00;;;;;;5047916;28;20017;-76
2022/11/11 10:37:30;;;;;;;9.10;3.42;;;15.90;97.00;;;;;;5036771;28;20043;-77
2022/11/11 10:40:11;;;;;;;9.38;2.85;;;15.90;96.80;;;;;;5039402;28;20071;-77
2022/11/11 10:42:36;;;;;;;10.38;3.25;;;15.90;97.00;;;;;;5036139;28;20032;-78
2022/11/11 10:45:28;;;;;;;6.15;3.67;;;15.90;96.70;;;;;;5033518;28;20034;-77
2022/11/11 10:48:06;;;;;;;17.02;3.90;;;16.00;96.40;;;;;;5053886;28;20111;-77
2022/11/11 10:50:43;;;;;;;11.40;2.95;;;15.90;96.60;;;;;;5048461;28;20587;-77
2022/11/11 10:53:41;;;;;;;6.13;3.00;;;15.90;96.80;;;;;;5032364;28;20052;-76
2022/11/11 10:56:23;;;;;;;13.45;3.92;;;15.90;96.90;;;;;;5038356;28;20089;-77
2022/11/11 10:59:15;;;;;;;10.75;3.17;;;15.90;96.70;;;;;;5042969;28;20413;-77
2022/11/11 11:02:00;;;;;;;8.52;3.28;;;15.90;96.90;;;;;;5040809;28;20367;-77
2022/11/11 11:04:39;;;;;;;10.30;3.72;;;16.00;96.70;;;;;;5044537;28;20523;-77
2022/11/11 11:07:06;;;;;;;10.05;3.53;;;16.00;96.80;;;;;;5041344;28;20020;-79
2022/11/11 11:10:33;;;;;;;9.25;3.88;;;16.00;96.70;;;;;;5050871;28;20120;-76
2022/11/11 11:13:31;;;;;;;11.68;5.75;;;16.00;96.80;;;;;;4978486;28;20061;-78
2022/11/11 11:16:03;;;;;;;12.30;4.95;;;16.00;96.80;;;;;;4954549;28;20034;-78
2022/11/11 11:18:29;;;;;;;14.52;5.20;;;16.00;96.90;;;;;;5042474;28;20048;-78
2022/11/11 11:21:03;;;;;;;11.85;4.70;;;16.00;97.30;;;;;;5048513;28;20025;-77
2022/11/11 11:23:39;;;;;;;19.85;6.13;;;16.00;97.50;;;;;;5048471;28;20031;-77
2022/11/11 11:26:06;;;;;;;12.40;5.45;;;16.10;97.80;;;;;;5049245;28;20078;-78
2022/11/11 11:28:33;;;;;;;14.07;5.50;;;16.20;97.70;;;;;;5061648;28;20469;-77
2022/11/11 11:31:07;;;;;;;9.30;5.13;;;16.20;97.30;;;;;;5051727;28;20041;-77
2022/11/11 11:33:51;;;;;;;21.02;6.45;;;16.30;97.20;;;;;;5045427;28;20399;-77
2022/11/11 11:36:18;;;;;;;27.35;6.72;;;16.30;97.30;;;;;;5045647;28;20025;-77
2022/11/11 11:38:49;;;;;;;15.55;5.82;;;16.30;97.40;;;;;;5063494;28;20123;-77
2022/11/11 11:41:17;;;;;;;16.98;6.22;;;16.30;97.80;;;;;;5042545;28;20017;-77
2022/11/11 11:43:44;;;;;;;14.20;6.13;;;16.30;97.90;;;;;;5049387;28;20033;-78
2022/11/11 11:46:28;;;;;;;11.23;5.72;;;16.30;98.00;;;;;;5044680;28;20454;-78
2022/11/11 11:48:57;;;;;;;10.60;6.38;;;16.30;98.20;;;;;;5043387;28;20033;-76
2022/11/11 11:51:34;;;;;;;11.55;5.55;;;16.40;98.30;;;;;;5053070;28;20040;-76
2022/11/11 11:54:02;;;;;;;10.40;6.10;;;16.40;98.20;;;;;;5038400;28;20021;-75
2022/11/11 11:56:38;;;;;;;10.50;5.80;;;16.30;98.10;;;;;;5055126;28;20033;-76
2022/11/11 11:59:21;;;;;;;10.50;4.60;;;16.30;98.30;;;;;;5044020;28;20120;-77
2022/11/11 12:02:04;;;;;;;12.27;4.80;;;16.40;98.80;;;;;;5047987;28;20135;-76
2022/11/11 12:05:01;;;;;;;12.05;4.35;;;16.40;98.90;;;;;;5048283;28;20102;-76
2022/11/11 12:07:32;;;;;;;11.57;4.95;;;16.50;99.10;;;;;;5041175;28;20411;-76
2022/11/11 12:10:16;;;;;;;11.73;4.97;;;16.40;98.80;;;;;;5050408;28;20394;-76
2022/11/11 12:12:50;;;;;;;14.35;5.13;;;16.40;98.60;;;;;;5043694;28;20021;-75
2022/11/11 12:15:24;;;;;;;13.32;4.55;;;16.50;98.60;;;;;;5047574;28;20195;-76
2022/11/11 12:17:55;;;;;;;14.15;6.50;;;16.50;98.80;;;;;;5056273;28;20469;-76
2022/11/11 12:20:49;;;;;;;13.60;7.97;;;16.40;98.30;;;;;;5047691;28;20021;-76
2022/11/11 12:23:53;;;;;;;13.68;8.57;;;16.40;97.70;;;;;;5044684;28;20051;-76
2022/11/11 12:26:23;;;;;;;10.75;6.03;;;16.40;97.60;;;;;;5052302;28;20039;-76
2022/11/11 12:29:11;;;;;;;10.85;6.60;;;16.40;97.40;;;;;;5047898;28;20370;-76
2022/11/11 12:31:59;;;;;;;7.65;5.97;;;16.50;96.70;;;;;;5045922;28;20044;-77
2022/11/11 12:34:28;;;;;;;10.73;6.20;;;16.40;96.30;;;;;;5043023;28;20497;-78
2022/11/11 12:36:58;;;;;;;9.25;5.65;;;16.40;96.00;;;;;;5045646;28;20039;-77
2022/11/11 12:39:46;;;;;;;7.05;5.95;;;16.40;95.90;;;;;;5049699;28;20377;-78
2022/11/11 12:42:29;;;;;;;8.77;5.40;;;16.40;95.80;;;;;;5052105;28;20041;-77
2022/11/11 12:45:07;;;;;;;19.27;5.47;;;16.40;96.20;;;;;;5055898;28;20024;-78
2022/11/11 12:47:51;;;;;;;14.15;5.93;;;16.50;96.00;;;;;;5048655;28;20384;-76
2022/11/11 12:50:49;;;;;;;12.77;4.65;;;16.50;95.70;;;;;;5045789;28;20021;-75
2022/11/11 12:53:34;;;;;;;7.93;4.88;;;16.40;95.50;;;;;;5058971;28;20052;-76
2022/11/11 12:56:05;;;;;;;9.20;4.85;;;16.40;95.30;;;;;;5072821;28;20432;-76
2022/11/11 12:59:06;;;;;;;10.38;4.72;;;16.40;95.20;;;;;;5055673;28;20064;-75
2022/11/11 13:01:54;;;;;;;13.63;4.57;;;16.40;95.10;;;;;;5008904;28;20435;-74
2022/11/11 13:04:48;;;;;;;8.25;4.18;;;16.40;95.10;;;;;;5051007;28;20048;-74
2022/11/11 13:07:47;;;;;;;9.90;4.72;;;16.40;95.10;;;;;;5054635;28;20028;-74
2022/11/11 13:10:25;;;;;;;12.68;5.07;;;16.40;95.10;;;;;;5052424;28;20088;-75
2022/11/11 13:13:05;;;;;;;7.63;4.18;;;16.40;95.00;;;;;;5048351;28;20025;-77
2022/11/11 13:15:31;;;;;;;8.43;3.40;;;16.40;95.20;;;;;;5057969;28;20059;-75
2022/11/11 13:18:01;;;;;;;6.97;3.63;;;16.40;95.30;;;;;;5059588;28;20044;-76
2022/11/11 13:20:56;;;;;;;9.10;4.15;;;16.40;95.30;;;;;;5051659;28;20031;-73
2022/11/11 13:23:22;;;;;;;6.78;4.05;;;16.40;95.40;;;;;;5052056;28;20549;-77
2022/11/11 13:25:52;;;;;;;8.35;4.40;;;16.50;95.20;;;;;;5052763;28;20169;-76
2022/11/11 13:28:38;;;;;;;7.13;3.92;;;16.50;95.20;;;;;;5050982;28;20358;-76
2022/11/11 13:31:10;;;;;;;6.03;3.80;;;16.50;95.10;;;;;;5052763;28;20037;-77
2022/11/11 13:33:39;;;;;;;7.30;4.30;;;16.50;95.00;;;;;;5050804;28;20040;-75
2022/11/11 13:36:08;;;;;;;6.45;4.45;;;16.50;94.90;;;;;;5051207;28;20493;-75
2022/11/11 13:38:44;;;;;;;7.20;4.10;;;16.50;94.80;;;;;;5052763;28;20013;-75
2022/11/11 13:41:10;;;;;;;5.72;4.05;;;16.50;94.90;;;;;;5053005;28;20027;-78
2022/11/11 13:43:42;;;;;;;5.70;3.92;;;16.50;94.80;;;;;;5051751;28;20104;-74
2022/11/11 13:46:38;;;;;;;5.97;4.13;;;16.50;94.90;;;;;;5052104;28;20466;-77
2022/11/11 13:49:08;;;;;;;5.95;4.15;;;16.50;94.90;;;;;;5052268;28;20123;-78
2022/11/11 13:51:41;;;;;;;5.70;3.70;;;16.50;94.80;;;;;;5051778;28;20108;-75
2022/11/11 13:54:26;;;;;;;4.72;3.53;;;16.50;94.90;;;;;;5052427;28;20428;-74
2022/11/11 13:56:53;;;;;;;8.15;5.47;;;16.50;95.00;;;;;;5053359;28;20104;-76
2022/11/11 13:59:31;;;;;;;6.78;4.60;;;16.50;94.80;;;;;;5053205;28;20025;-75
2022/11/11 14:02:19;;;;;;;10.48;4.97;;;16.50;94.90;;;;;;5050383;28;20067;-77
2022/11/11 14:05:10;;;;;;;7.38;5.20;;;16.50;95.10;;;;;;5052680;28;20401;-75
2022/11/11 14:07:48;;;;;;;7.95;5.32;;;16.40;95.10;;;;;;5048618;28;20047;-74
2022/11/11 14:10:16;;;;;;;7.60;4.90;;;16.50;95.10;;;;;;5051307;28;20036;-75
2022/11/11 14:12:44;;;;;;;10.30;5.75;;;16.50;95.00;;;;;;5051959;28;20036;-74
2022/11/11 14:15:35;;;;;;;10.25;5.93;;;16.40;95.00;;;;;;5052787;28;20021;-75
2022/11/11 14:18:02;;;;;;;7.80;5.40;;;16.40;95.00;;;;;;5051002;28;20025;-75